createdAt,value
2018-04-14T00:01:42.651Z,14.30
2018-04-14T00:04:09.742Z,14.80
2018-04-14T00:06:36.133Z,14.70
2018-04-14T00:09:03.251Z,14.50
2018-04-14T00:11:29.629Z,14.50
2018-04-14T00:13:56.722Z,14.40
2018-04-14T00:16:23.043Z,14.40
2018-04-14T00:18:49.421Z,14.50
2018-04-14T00:21:15.750Z,14.40
2018-04-14T00:23:42.076Z,14.60
2018-04-14T00:26:09.225Z,14.50
2018-04-14T00:28:35.589Z,14.40
2018-04-14T00:31:01.984Z,14.40
2018-04-14T00:33:28.346Z,14.40
2018-04-14T00:35:54.671Z,14.30
2018-04-14T00:38:21.748Z,14.30
2018-04-14T00:40:48.135Z,14.20
2018-04-14T00:43:15.210Z,14.30
2018-04-14T00:45:41.875Z,14.20
2018-04-14T00:48:08.220Z,14.20
2018-04-14T00:50:34.653Z,14.30
2018-04-14T00:53:13.316Z,14.40
2018-04-14T00:55:39.660Z,14.30
2018-04-14T00:58:07.926Z,14.30
2018-04-14T01:00:34.307Z,14.10
2018-04-14T01:03:00.699Z,14.00
2018-04-14T01:05:27.077Z,14.00
2018-04-14T01:07:53.438Z,14.10
2018-04-14T01:10:20.508Z,14.10
2018-04-14T01:12:46.911Z,14.10
2018-04-14T01:15:13.222Z,14.10
2018-04-14T01:17:39.602Z,14.10
2018-04-14T01:20:05.989Z,14.10
2018-04-14T01:22:33.081Z,14.00
2018-04-14T01:24:59.505Z,14.00
2018-04-14T01:27:26.596Z,13.90
2018-04-14T01:29:52.915Z,13.80
2018-04-14T01:32:19.304Z,13.90
2018-04-14T01:34:46.361Z,13.80
2018-04-14T01:37:12.796Z,13.80
2018-04-14T01:39:39.895Z,13.90
2018-04-14T01:42:06.237Z,13.80
2018-04-14T01:44:32.616Z,13.90
2018-04-14T01:46:58.954Z,13.90
2018-04-14T01:49:25.360Z,14.10
2018-04-14T01:51:51.706Z,14.00
2018-04-14T01:54:18.083Z,14.10
2018-04-14T01:56:44.420Z,14.00
2018-04-14T01:59:10.725Z,13.90
2018-04-14T02:01:37.090Z,13.90
2018-04-14T02:04:03.414Z,14.00
2018-04-14T02:06:29.794Z,14.00
2018-04-14T02:08:56.158Z,14.30
2018-04-14T02:11:22.531Z,14.10
2018-04-14T02:13:49.707Z,13.90
2018-04-14T02:16:16.212Z,13.80
2018-04-14T02:18:43.286Z,13.80
2018-04-14T02:21:09.654Z,13.70
2018-04-14T02:23:35.975Z,13.70
2018-04-14T02:26:02.353Z,13.00
2018-04-14T02:28:28.656Z,12.20
2018-04-14T02:30:55.042Z,11.90
2018-04-14T02:33:21.423Z,11.60
2018-04-14T02:35:48.514Z,11.00
2018-04-14T02:38:14.904Z,11.00
2018-04-14T02:40:41.240Z,11.10
2018-04-14T02:43:07.596Z,10.70
2018-04-14T02:45:33.989Z,10.50
2018-04-14T02:48:00.328Z,10.50
2018-04-14T02:50:26.705Z,10.50
2018-04-14T02:52:53.763Z,10.40
2018-04-14T02:55:20.086Z,10.30
2018-04-14T02:57:46.470Z,10.40
2018-04-14T03:00:12.861Z,10.50
2018-04-14T03:02:39.192Z,10.50
2018-04-14T03:05:05.604Z,10.50
2018-04-14T03:07:32.686Z,10.70
2018-04-14T03:10:00.114Z,10.60
2018-04-14T03:12:26.595Z,10.50
2018-04-14T03:14:52.906Z,10.20
2018-04-14T03:17:19.353Z,10.20
2018-04-14T03:19:45.669Z,10.10
2018-04-14T03:22:11.974Z,10.10
2018-04-14T03:24:38.345Z,10.20
2018-04-14T03:27:04.677Z,10.10
2018-04-14T03:29:31.046Z,9.90
2018-04-14T03:31:58.143Z,10.10
2018-04-14T03:34:24.501Z,10.00
2018-04-14T03:36:50.879Z,10.00
2018-04-14T03:39:17.208Z,10.10
2018-04-14T03:41:43.630Z,10.10
2018-04-14T03:44:10.022Z,10.30
2018-04-14T03:46:36.393Z,10.40
2018-04-14T03:49:03.535Z,10.10
2018-04-14T03:51:29.907Z,10.00
2018-04-14T03:53:56.289Z,10.10
2018-04-14T03:56:23.353Z,9.90
2018-04-14T03:58:49.739Z,9.80
2018-04-14T04:01:16.047Z,9.90
2018-04-14T04:03:42.439Z,9.90
2018-04-14T04:06:09.513Z,10.00
2018-04-14T04:08:35.828Z,10.00
2018-04-14T04:11:02.214Z,10.10
2018-04-14T04:13:28.518Z,10.00
2018-04-14T04:15:54.880Z,10.10
2018-04-14T04:18:33.436Z,10.10
2018-04-14T04:21:12.092Z,10.20
2018-04-14T04:23:50.854Z,10.00
2018-04-14T04:26:17.159Z,10.00
2018-04-14T04:28:44.166Z,10.00
2018-04-14T04:31:11.409Z,9.90
2018-04-14T04:33:37.691Z,9.80
2018-04-14T04:36:04.683Z,9.80
2018-04-14T04:38:30.965Z,9.70
2018-04-14T04:40:57.270Z,10.00
2018-04-14T04:43:23.681Z,10.10
2018-04-14T04:45:49.921Z,10.20
2018-04-14T04:48:16.166Z,10.20
2018-04-14T04:50:42.463Z,10.10
2018-04-14T04:53:08.699Z,10.10
2018-04-14T04:55:34.949Z,10.00
2018-04-14T04:58:01.258Z,10.00
2018-04-14T05:00:27.606Z,10.00
2018-04-14T05:02:54.634Z,10.10
2018-04-14T05:05:22.438Z,9.90
2018-04-14T05:07:48.709Z,9.90
2018-04-14T05:10:15.005Z,9.90
2018-04-14T05:12:41.266Z,9.80
2018-04-14T05:15:07.518Z,10.00
2018-04-14T05:17:33.820Z,10.20
2018-04-14T05:20:00.079Z,10.00
2018-04-14T05:22:26.409Z,10.00
2018-04-14T05:24:52.713Z,10.10
2018-04-14T05:27:19.039Z,9.90
2018-04-14T05:29:45.289Z,9.60
2018-04-14T05:32:11.546Z,9.50
2018-04-14T05:34:38.572Z,9.70
2018-04-14T05:37:04.833Z,9.70
2018-04-14T05:39:31.882Z,9.80
2018-04-14T05:41:58.939Z,9.70
2018-04-14T05:44:25.280Z,9.70
2018-04-14T05:46:51.573Z,9.50
2018-04-14T05:49:18.646Z,9.80
2018-04-14T05:51:44.961Z,9.80
2018-04-14T05:54:12.012Z,10.00
2018-04-14T05:56:39.056Z,10.10
2018-04-14T05:59:06.041Z,10.20
2018-04-14T06:01:32.522Z,10.10
2018-04-14T06:03:59.540Z,10.00
2018-04-14T06:06:25.791Z,10.00
2018-04-14T06:08:52.854Z,10.00
2018-04-14T06:11:19.843Z,9.90
2018-04-14T06:13:46.101Z,9.80
2018-04-14T06:16:13.906Z,9.90
2018-04-14T06:18:40.191Z,9.90
2018-04-14T06:21:06.423Z,10.00
2018-04-14T06:23:32.705Z,10.20
2018-04-14T06:25:58.970Z,10.20
2018-04-14T06:28:25.260Z,10.00
2018-04-14T06:30:51.538Z,9.90
2018-04-14T06:33:17.785Z,9.80
2018-04-14T06:35:44.861Z,9.90
2018-04-14T06:38:11.115Z,9.80
2018-04-14T06:40:37.417Z,10.00
2018-04-14T06:43:03.673Z,9.80
2018-04-14T06:45:29.937Z,9.90
2018-04-14T06:47:57.008Z,10.00
2018-04-14T06:50:24.003Z,10.10
2018-04-14T06:52:50.286Z,10.00
2018-04-14T06:55:16.531Z,10.20
2018-04-14T06:57:42.833Z,10.30
2018-04-14T07:00:10.077Z,10.00
2018-04-14T07:02:36.385Z,9.90
2018-04-14T07:05:02.731Z,10.00
2018-04-14T07:07:29.773Z,10.00
2018-04-14T07:09:56.091Z,10.00
2018-04-14T07:12:22.378Z,9.90
2018-04-14T07:14:48.617Z,10.00
2018-04-14T07:17:14.921Z,10.20
2018-04-14T07:19:41.205Z,10.20
2018-04-14T07:22:07.499Z,10.30
2018-04-14T07:24:33.798Z,10.20
2018-04-14T07:27:00.063Z,10.40
2018-04-14T07:29:26.366Z,10.20
2018-04-14T07:31:52.622Z,10.20
2018-04-14T07:34:18.942Z,10.30
2018-04-14T07:36:45.202Z,10.20
2018-04-14T07:39:11.496Z,10.30
2018-04-14T07:41:37.748Z,10.30
2018-04-14T07:44:04.051Z,10.30
2018-04-14T07:46:30.338Z,10.20
2018-04-14T07:48:56.581Z,10.20
2018-04-14T07:51:23.610Z,9.90
2018-04-14T07:53:49.854Z,9.80
2018-04-14T07:56:16.896Z,10.00
2018-04-14T07:58:43.922Z,10.10
2018-04-14T08:01:10.235Z,10.00
2018-04-14T08:03:36.500Z,10.10
2018-04-14T08:06:03.514Z,10.20
2018-04-14T08:08:29.814Z,10.20
2018-04-14T08:10:56.055Z,10.20
2018-04-14T08:13:22.364Z,10.30
2018-04-14T08:15:48.658Z,10.40
2018-04-14T08:18:14.970Z,10.50
2018-04-14T08:20:41.223Z,10.50
2018-04-14T08:23:08.233Z,10.20
2018-04-14T08:25:34.526Z,10.20
2018-04-14T08:28:00.768Z,10.10
2018-04-14T08:30:27.057Z,10.30
2018-04-14T08:32:54.070Z,10.30
2018-04-14T08:35:20.379Z,10.20
2018-04-14T08:37:46.648Z,10.40
2018-04-14T08:40:13.001Z,10.30
2018-04-14T08:42:40.037Z,10.20
2018-04-14T08:45:07.059Z,10.30
2018-04-14T08:47:34.129Z,10.30
2018-04-14T08:50:01.130Z,10.20
2018-04-14T08:52:27.433Z,10.20
2018-04-14T08:54:53.721Z,10.20
2018-04-14T08:57:19.966Z,10.30
2018-04-14T08:59:47.019Z,10.40
2018-04-14T09:02:13.338Z,10.30
2018-04-14T09:04:39.646Z,10.40
2018-04-14T09:07:05.894Z,10.50
2018-04-14T09:09:32.935Z,10.40
2018-04-14T09:11:59.217Z,10.40
2018-04-14T09:14:25.530Z,10.50
2018-04-14T09:16:51.806Z,10.40
2018-04-14T09:19:18.189Z,10.50
2018-04-14T09:21:45.260Z,10.50
2018-04-14T09:24:11.645Z,10.50
2018-04-14T09:26:37.966Z,10.50
2018-04-14T09:29:04.295Z,10.40
2018-04-14T09:31:30.704Z,10.40
2018-04-14T09:33:57.015Z,10.30
2018-04-14T09:36:23.380Z,10.40
2018-04-14T09:38:49.730Z,10.40
2018-04-14T09:41:16.121Z,10.40
2018-04-14T09:43:42.441Z,10.30
2018-04-14T09:46:08.834Z,10.20
2018-04-14T09:48:35.143Z,10.30
2018-04-14T09:51:01.483Z,10.20
2018-04-14T09:53:27.900Z,10.20
2018-04-14T09:55:54.246Z,10.20
2018-04-14T09:58:20.657Z,10.30
2018-04-14T10:00:53.030Z,10.20
2018-04-14T10:03:22.462Z,10.10
2018-04-14T10:05:48.834Z,10.10
2018-04-14T10:08:15.192Z,10.10
2018-04-14T10:10:41.592Z,10.20
2018-04-14T10:13:07.987Z,10.00
2018-04-14T10:15:34.404Z,10.00
2018-04-14T10:18:00.772Z,9.90
2018-04-14T10:20:27.237Z,9.90
2018-04-14T10:22:53.546Z,10.00
2018-04-14T10:25:19.860Z,10.20
2018-04-14T10:27:46.988Z,10.30
2018-04-14T10:30:13.336Z,10.30
2018-04-14T10:32:40.439Z,10.40
2018-04-14T10:35:06.771Z,10.30
2018-04-14T10:37:33.172Z,10.40
2018-04-14T10:39:59.516Z,10.40
2018-04-14T10:42:25.894Z,10.40
2018-04-14T10:44:52.230Z,10.40
2018-04-14T10:47:19.351Z,10.40
2018-04-14T10:49:45.691Z,10.40
2018-04-14T10:52:12.073Z,10.40
2018-04-14T10:54:38.459Z,10.30
2018-04-14T10:57:04.847Z,10.20
2018-04-14T10:59:31.204Z,10.30
2018-04-14T11:01:57.605Z,10.30
2018-04-14T11:04:24.002Z,10.20
2018-04-14T11:06:51.093Z,10.10
2018-04-14T11:09:17.473Z,10.10
2018-04-14T11:11:44.612Z,10.20
2018-04-14T11:14:11.007Z,10.20
2018-04-14T11:16:37.385Z,10.10
2018-04-14T11:19:03.711Z,10.10
2018-04-14T11:21:30.057Z,10.10
2018-04-14T11:23:57.168Z,10.20
2018-04-14T11:26:23.573Z,10.10
2018-04-14T11:28:49.975Z,10.10
2018-04-14T11:31:17.126Z,10.10
2018-04-14T11:33:43.575Z,10.00
2018-04-14T11:36:09.899Z,10.20
2018-04-14T11:38:36.219Z,10.20
2018-04-14T11:41:03.359Z,10.10
2018-04-14T11:43:30.427Z,10.20
2018-04-14T11:45:56.778Z,10.10
2018-04-14T11:48:23.168Z,10.20
2018-04-14T11:50:49.541Z,10.10
2018-04-14T11:53:15.874Z,10.10
2018-04-14T11:55:42.204Z,10.10
2018-04-14T11:58:08.818Z,10.00
2018-04-14T12:00:35.191Z,10.10
2018-04-14T12:03:01.574Z,10.10
2018-04-14T12:05:27.967Z,10.10
2018-04-14T12:07:54.310Z,10.10
2018-04-14T12:10:20.681Z,10.10
2018-04-14T12:12:46.998Z,10.00
2018-04-14T12:15:13.406Z,10.10
2018-04-14T12:17:40.507Z,10.40
2018-04-14T12:20:06.893Z,10.40
2018-04-14T12:22:33.349Z,10.40
2018-04-14T12:24:59.728Z,10.40
2018-04-14T12:27:26.098Z,10.20
2018-04-14T12:29:53.161Z,10.10
2018-04-14T12:32:19.539Z,10.10
2018-04-14T12:34:45.869Z,10.10
2018-04-14T12:37:12.277Z,10.20
2018-04-14T12:39:38.609Z,10.20
2018-04-14T12:42:04.999Z,10.20
2018-04-14T12:44:32.090Z,10.30
2018-04-14T12:46:58.461Z,10.20
2018-04-14T12:49:25.551Z,10.40
2018-04-14T12:51:51.917Z,10.40
2018-04-14T12:54:18.218Z,10.50
2018-04-14T12:56:44.589Z,10.50
2018-04-14T12:59:10.983Z,10.50
2018-04-14T13:01:37.300Z,10.40
2018-04-14T13:04:03.687Z,10.40
2018-04-14T13:06:30.036Z,10.40
2018-04-14T13:08:56.412Z,10.40
2018-04-14T13:11:22.747Z,10.40
2018-04-14T13:13:49.129Z,10.20
2018-04-14T13:16:15.856Z,10.00
2018-04-14T13:18:42.205Z,10.00
2018-04-14T13:21:08.581Z,10.00
2018-04-14T13:23:34.915Z,10.00
2018-04-14T13:26:01.318Z,9.90
2018-04-14T13:28:27.718Z,9.90
2018-04-14T13:30:54.797Z,10.10
2018-04-14T13:33:21.225Z,10.00
2018-04-14T13:35:47.563Z,10.00
2018-04-14T13:38:13.887Z,9.90
2018-04-14T13:40:40.278Z,10.10
2018-04-14T13:43:07.419Z,10.10
2018-04-14T13:45:34.546Z,10.10
2018-04-14T13:48:00.870Z,10.00
2018-04-14T13:50:27.239Z,10.10
2018-04-14T13:52:53.591Z,10.00
2018-04-14T13:55:19.944Z,10.10
2018-04-14T13:57:46.297Z,10.10
2018-04-14T14:00:12.836Z,10.20
2018-04-14T14:02:40.013Z,10.10
2018-04-14T14:05:06.339Z,10.10
2018-04-14T14:07:32.729Z,10.10
2018-04-14T14:09:59.115Z,10.00
2018-04-14T14:12:25.509Z,10.00
2018-04-14T14:14:51.873Z,10.00
2018-04-14T14:17:18.274Z,9.90
2018-04-14T14:19:44.597Z,9.80
2018-04-14T14:22:11.738Z,9.80
2018-04-14T14:24:38.195Z,9.80
2018-04-14T14:27:04.519Z,9.90
2018-04-14T14:29:30.907Z,9.90
2018-04-14T14:31:57.230Z,9.90
2018-04-14T14:34:23.585Z,10.00
2018-04-14T14:36:49.966Z,9.90
2018-04-14T14:39:16.315Z,10.00
2018-04-14T14:41:43.423Z,10.00
2018-04-14T14:44:09.776Z,9.90
2018-04-14T14:46:37.008Z,10.00
2018-04-14T14:49:03.374Z,10.00
2018-04-14T14:51:30.477Z,10.20
2018-04-14T14:53:56.808Z,10.10
2018-04-14T14:56:23.148Z,10.10
2018-04-14T14:58:49.480Z,10.10
2018-04-14T15:01:15.852Z,10.00
2018-04-14T15:03:42.911Z,10.10
2018-04-14T15:06:09.309Z,10.10
2018-04-14T15:08:36.409Z,10.00
2018-04-14T15:11:02.791Z,9.90
2018-04-14T15:13:29.382Z,9.90
2018-04-14T15:15:55.696Z,10.00
2018-04-14T15:18:22.072Z,10.10
2018-04-14T15:20:48.397Z,10.00
2018-04-14T15:23:14.798Z,10.10
2018-04-14T15:25:41.161Z,10.10
2018-04-14T15:28:07.523Z,10.20
2018-04-14T15:30:34.638Z,10.20
2018-04-14T15:33:00.992Z,10.10
2018-04-14T15:35:28.111Z,10.20
2018-04-14T15:37:54.422Z,10.10
2018-04-14T15:40:23.367Z,10.20
2018-04-14T15:42:50.477Z,10.20
2018-04-14T15:45:16.789Z,10.20
2018-04-14T15:47:43.152Z,10.20
2018-04-14T15:50:09.612Z,10.20
2018-04-14T15:52:36.841Z,10.10
2018-04-14T15:55:03.931Z,10.10
2018-04-14T15:57:30.260Z,10.00
2018-04-14T15:59:56.642Z,10.10
2018-04-14T16:02:23.169Z,10.20
2018-04-14T16:04:49.510Z,10.10
2018-04-14T16:07:15.859Z,10.10
2018-04-14T16:09:42.980Z,10.20
2018-04-14T16:12:09.313Z,10.10
2018-04-14T16:14:35.709Z,10.20
2018-04-14T16:17:02.063Z,10.10
2018-04-14T16:19:28.414Z,10.10
2018-04-14T16:21:54.799Z,10.20
2018-04-14T16:24:21.113Z,10.20
2018-04-14T16:26:48.176Z,10.20
2018-04-14T16:29:14.525Z,10.20
2018-04-14T16:31:40.893Z,10.20
2018-04-14T16:34:07.256Z,10.20
2018-04-14T16:36:33.591Z,10.30
2018-04-14T16:38:59.979Z,10.20
2018-04-14T16:41:26.361Z,10.30
2018-04-14T16:43:52.702Z,10.30
2018-04-14T16:46:19.080Z,10.30
2018-04-14T16:48:45.430Z,10.30
2018-04-14T16:51:12.493Z,10.20
2018-04-14T16:53:38.874Z,10.20
2018-04-14T16:56:05.220Z,10.20
2018-04-14T16:58:32.285Z,10.20
2018-04-14T17:00:59.403Z,10.20
2018-04-14T17:03:25.709Z,10.20
2018-04-14T17:05:52.053Z,10.20
2018-04-14T17:08:18.434Z,10.20
2018-04-14T17:10:45.521Z,10.20
2018-04-14T17:13:11.906Z,10.20
2018-04-14T17:15:39.002Z,10.20
2018-04-14T17:18:05.343Z,10.20
2018-04-14T17:20:31.700Z,10.20
2018-04-14T17:22:58.770Z,10.40
2018-04-14T17:25:25.142Z,10.30
2018-04-14T17:27:51.462Z,10.30
2018-04-14T17:30:17.833Z,10.20
2018-04-14T17:32:44.153Z,10.20
2018-04-14T17:35:10.518Z,10.30
2018-04-14T17:37:37.668Z,10.20
2018-04-14T17:40:04.734Z,10.20
2018-04-14T17:42:31.124Z,10.10
2018-04-14T17:44:58.270Z,10.10
2018-04-14T17:47:25.345Z,10.00
2018-04-14T17:49:52.411Z,9.90
2018-04-14T17:52:18.795Z,9.90
2018-04-14T17:54:45.156Z,9.90
2018-04-14T17:57:12.221Z,10.00
2018-04-14T17:59:38.585Z,9.90
2018-04-14T18:02:04.994Z,9.90
2018-04-14T18:04:31.327Z,9.90
2018-04-14T18:06:57.730Z,9.90
2018-04-14T18:09:24.876Z,10.00
2018-04-14T18:11:51.241Z,10.00
2018-04-14T18:14:17.574Z,9.90
2018-04-14T18:16:43.946Z,9.90
2018-04-14T18:19:11.045Z,10.00
2018-04-14T18:21:37.424Z,10.00
2018-04-14T18:24:05.295Z,10.00
2018-04-14T18:26:31.617Z,10.00
2018-04-14T18:28:57.923Z,10.00
2018-04-14T18:31:24.341Z,9.90
2018-04-14T18:33:50.687Z,9.90
2018-04-14T18:36:17.071Z,9.90
2018-04-14T18:38:43.436Z,10.00
2018-04-14T18:41:09.757Z,9.90
2018-04-14T18:43:36.135Z,9.90
2018-04-14T18:46:02.518Z,10.00
2018-04-14T18:48:28.979Z,9.90
2018-04-14T18:50:55.398Z,9.90
2018-04-14T18:53:21.728Z,9.90
2018-04-14T18:55:48.275Z,9.90
2018-04-14T18:58:14.737Z,9.90
2018-04-14T19:00:41.871Z,9.90
2018-04-14T19:03:09.681Z,9.80
2018-04-14T19:05:36.062Z,9.80
2018-04-14T19:08:02.391Z,9.90
2018-04-14T19:10:28.771Z,9.90
2018-04-14T19:12:55.123Z,9.90
2018-04-14T19:15:21.541Z,9.70
2018-04-14T19:17:47.903Z,9.80
2018-04-14T19:20:14.365Z,9.70
2018-04-14T19:22:40.730Z,9.70
2018-04-14T19:25:07.088Z,9.70
2018-04-14T19:27:33.417Z,9.70
2018-04-14T19:29:59.821Z,9.70
2018-04-14T19:32:26.208Z,9.60
2018-04-14T19:34:52.595Z,9.60
2018-04-14T19:37:18.994Z,9.70
2018-04-14T19:39:47.131Z,9.70
2018-04-14T19:42:13.533Z,9.70
2018-04-14T19:44:39.894Z,9.70
2018-04-14T19:47:06.264Z,9.70
2018-04-14T19:49:33.373Z,9.70
2018-04-14T19:51:59.742Z,9.60
2018-04-14T19:54:26.836Z,9.60
2018-04-14T19:56:53.213Z,9.60
2018-04-14T19:59:19.588Z,9.50
2018-04-14T20:01:45.917Z,9.50
2018-04-14T20:04:12.298Z,9.50
2018-04-14T20:06:38.647Z,9.50
2018-04-14T20:09:05.730Z,9.40
2018-04-14T20:11:32.839Z,9.30
2018-04-14T20:13:59.939Z,9.30
2018-04-14T20:16:26.270Z,9.20
2018-04-14T20:18:52.625Z,9.20
2018-04-14T20:21:19.758Z,9.10
2018-04-14T20:23:46.098Z,9.00
2018-04-14T20:26:12.416Z,9.00
2018-04-14T20:28:38.794Z,9.00
2018-04-14T20:31:05.925Z,9.10
2018-04-14T20:33:32.238Z,9.10
2018-04-14T20:35:58.617Z,9.00
2018-04-14T20:38:25.038Z,9.00
2018-04-14T20:40:51.512Z,9.00
2018-04-14T20:43:17.849Z,9.00
2018-04-14T20:45:44.206Z,9.00
2018-04-14T20:48:10.575Z,9.10
2018-04-14T20:50:36.894Z,9.20
2018-04-14T20:53:04.043Z,9.30
2018-04-14T20:55:31.126Z,9.30
2018-04-14T20:57:57.467Z,9.20
2018-04-14T21:00:23.859Z,9.20
2018-04-14T21:02:50.182Z,9.30
2018-04-14T21:05:17.291Z,9.20
2018-04-14T21:07:43.612Z,9.20
2018-04-14T21:10:09.994Z,9.20
2018-04-14T21:12:37.041Z,9.20
2018-04-14T21:15:04.161Z,9.20
2018-04-14T21:17:31.236Z,9.10
2018-04-14T21:19:58.329Z,9.30
2018-04-14T21:22:24.672Z,9.20
2018-04-14T21:24:50.998Z,9.20
2018-04-14T21:27:17.378Z,9.20
2018-04-14T21:29:44.480Z,9.10
2018-04-14T21:32:10.803Z,9.00
2018-04-14T21:34:37.193Z,9.00
2018-04-14T21:37:03.543Z,8.90
2018-04-14T21:39:29.925Z,9.00
2018-04-14T21:41:57.059Z,8.90
2018-04-14T21:44:23.377Z,8.90
2018-04-14T21:46:49.759Z,8.90
2018-04-14T21:49:16.819Z,9.00
2018-04-14T21:51:43.213Z,9.00
2018-04-14T21:54:09.566Z,8.90
2018-04-14T21:56:36.674Z,9.00
2018-04-14T21:59:03.009Z,8.90
2018-04-14T22:01:29.382Z,9.10
2018-04-14T22:03:55.762Z,9.20
2018-04-14T22:06:22.090Z,9.10
2018-04-14T22:08:48.474Z,9.10
2018-04-14T22:11:14.852Z,9.10
2018-04-14T22:13:41.226Z,9.10
2018-04-14T22:16:08.338Z,9.20
2018-04-14T22:18:34.678Z,9.10
2018-04-14T22:21:01.054Z,9.10
2018-04-14T22:23:27.445Z,9.20
2018-04-14T22:25:54.529Z,9.20
2018-04-14T22:28:21.626Z,9.20
2018-04-14T22:30:47.954Z,9.10
2018-04-14T22:33:14.329Z,9.20
2018-04-14T22:35:41.397Z,9.20
2018-04-14T22:38:07.795Z,9.20
2018-04-14T22:40:34.912Z,9.20
2018-04-14T22:43:01.274Z,9.10
2018-04-14T22:45:28.349Z,9.30
2018-04-14T22:47:54.730Z,9.30
2018-04-14T22:50:21.055Z,9.30
2018-04-14T22:52:47.361Z,9.40
2018-04-14T22:55:13.732Z,9.50
2018-04-14T22:57:40.816Z,9.40
2018-04-14T23:00:07.368Z,9.40
2018-04-14T23:02:35.145Z,9.20
2018-04-14T23:05:01.494Z,9.20
2018-04-14T23:07:27.893Z,9.40
2018-04-14T23:09:54.269Z,9.40
2018-04-14T23:12:21.389Z,9.30
2018-04-14T23:14:47.693Z,9.20
2018-04-14T23:17:14.078Z,9.30
2018-04-14T23:19:40.398Z,9.20
2018-04-14T23:22:06.768Z,9.20
2018-04-14T23:24:33.111Z,9.30
2018-04-14T23:26:59.447Z,9.30
2018-04-14T23:29:25.839Z,9.40
2018-04-14T23:31:52.898Z,9.40
2018-04-14T23:34:20.030Z,9.40
2018-04-14T23:36:47.115Z,9.30
2018-04-14T23:39:13.478Z,9.20
2018-04-14T23:41:39.811Z,9.20
2018-04-14T23:44:06.209Z,9.30
2018-04-14T23:46:32.531Z,9.30
2018-04-14T23:48:58.901Z,9.30
2018-04-14T23:51:25.527Z,9.30
2018-04-14T23:53:51.946Z,9.30
2018-04-14T23:56:18.311Z,9.20
2018-04-14T23:58:44.633Z,9.30
